Time;durP1;ratioP1;P1;durP2;ratioP2;P2;SDS_P1;SDS_P2;PMS_P1;PMS_P2;Temp;Humidity;BMP_temperature;BMP_pressure;BME280_temperature;BME280_humidity;BME280_pressure;Samples;Min_cycle;Max_cycle;Signal;HPM_P1;HPM_P2
2022/03/28 00:00:49;;;;;;;7.38;0.85;;;;;;;;;;2077847;28;20033;-60
2022/03/28 00:02:07;;;;;;;0.55;0.55;;;;;;;;;;2075143;28;20030;-59
2022/03/28 00:03:26;;;;;;;0.50;0.50;;;;;;;;;;2077621;28;20030;-59
2022/03/28 00:04:45;;;;;;;1.85;0.43;;;;;;;;;;2077725;28;20492;-59
2022/03/28 00:06:04;;;;;;;0.50;0.43;;;;;;;;;;2077324;28;20486;-58
2022/03/28 00:07:23;;;;;;;0.47;0.40;;;;;;;;;;2075942;28;20065;-58
2022/03/28 00:08:42;;;;;;;1.05;0.50;;;;;;;;;;2078171;28;20041;-59
2022/03/28 00:10:02;;;;;;;3.22;1.05;;;;;;;;;;2077457;28;20041;-59
2022/03/28 00:11:21;;;;;;;0.63;0.43;;;;;;;;;;2077584;28;20030;-59
2022/03/28 00:12:40;;;;;;;0.80;0.70;;;;;;;;;;2076657;28;20030;-59
2022/03/28 00:13:59;;;;;;;4.03;0.65;;;;;;;;;;2078299;28;20025;-60
2022/03/28 00:15:18;;;;;;;0.93;0.80;;;;;;;;;;2078363;28;20037;-59
2022/03/28 00:16:37;;;;;;;1.15;0.63;;;;;;;;;;2077512;28;20054;-58
2022/03/28 00:17:56;;;;;;;2.15;0.73;;;;;;;;;;2074302;28;20061;-57
2022/03/28 00:19:15;;;;;;;0.45;0.38;;;;;;;;;;2076377;28;20488;-59
2022/03/28 00:20:33;;;;;;;0.60;0.60;;;;;;;;;;2077763;28;20041;-58
2022/03/28 00:21:52;;;;;;;1.95;0.50;;;;;;;;;;2076697;28;20038;-59
2022/03/28 00:23:11;;;;;;;1.00;0.80;;;;;;;;;;2077281;28;20033;-59
2022/03/28 00:24:30;;;;;;;0.57;0.50;;;;;;;;;;2077909;28;20033;-59
2022/03/28 00:25:49;;;;;;;1.95;0.50;;;;;;;;;;2074346;28;20042;-59
2022/03/28 00:27:08;;;;;;;1.30;0.40;;;;;;;;;;2076680;28;20026;-59
2022/03/28 00:28:27;;;;;;;1.17;0.50;;;;;;;;;;2076896;28;20080;-59
2022/03/28 00:29:46;;;;;;;4.75;0.60;;;;;;;;;;2076402;28;20053;-59
2022/03/28 00:31:04;;;;;;;1.67;0.60;;;;;;;;;;2077890;28;20037;-59
2022/03/28 00:32:24;;;;;;;0.32;0.32;;;;;;;;;;2076365;28;20070;-59
2022/03/28 00:33:42;;;;;;;0.63;0.63;;;;;;;;;;2076800;28;20026;-59
2022/03/28 00:35:03;;;;;;;3.60;0.60;;;;;;;;;;2077330;28;20049;-58
2022/03/28 00:36:21;;;;;;;1.27;0.80;;;;;;;;;;2075782;28;20117;-59
2022/03/28 00:37:41;;;;;;;1.60;0.77;;;;;;;;;;2075539;28;20153;-59
2022/03/28 00:39:00;;;;;;;1.30;0.68;;;;;;;;;;2074215;28;20026;-58
2022/03/28 00:40:19;;;;;;;1.52;0.70;;;;;;;;;;2078032;28;20034;-59
2022/03/28 00:41:38;;;;;;;1.90;0.47;;;;;;;;;;2077872;28;20034;-60
2022/03/28 00:43:05;;;;;;;1.35;0.68;;;;;;;;;;2077126;28;20037;-59
2022/03/28 00:44:24;;;;;;;3.00;0.70;;;;;;;;;;2077779;28;20034;-59
2022/03/28 00:45:43;;;;;;;0.75;0.73;;;;;;;;;;2075596;28;20034;-59
2022/03/28 00:47:02;;;;;;;0.75;0.52;;;;;;;;;;2077514;28;20451;-60
2022/03/28 00:48:22;;;;;;;1.08;0.50;;;;;;;;;;2076193;28;20033;-59
2022/03/28 00:49:41;;;;;;;0.65;0.60;;;;;;;;;;2074982;28;20033;-58
2022/03/28 00:51:01;;;;;;;0.40;0.40;;;;;;;;;;2075859;28;20025;-59
2022/03/28 00:52:20;;;;;;;0.50;0.50;;;;;;;;;;2075825;28;20037;-60
2022/03/28 00:53:39;;;;;;;0.80;0.80;;;;;;;;;;2075901;28;20029;-59
2022/03/28 00:54:57;;;;;;;0.70;0.70;;;;;;;;;;2077285;28;20485;-59
2022/03/28 00:56:16;;;;;;;0.60;0.60;;;;;;;;;;2075737;28;20451;-59
2022/03/28 00:57:35;;;;;;;0.90;0.60;;;;;;;;;;2077344;28;20495;-59
2022/03/28 00:58:54;;;;;;;0.90;0.68;;;;;;;;;;2077117;28;20034;-58
2022/03/28 01:00:13;;;;;;;0.60;0.60;;;;;;;;;;2076303;28;20034;-59
2022/03/28 01:01:32;;;;;;;4.35;0.90;;;;;;;;;;2077442;28;20030;-57
2022/03/28 01:02:51;;;;;;;1.63;0.70;;;;;;;;;;2076644;28;20486;-59
2022/03/28 01:04:10;;;;;;;2.00;0.70;;;;;;;;;;2076226;28;20379;-60
2022/03/28 01:05:31;;;;;;;2.33;0.70;;;;;;;;;;2077385;28;20029;-60
2022/03/28 01:06:51;;;;;;;1.38;0.60;;;;;;;;;;2075736;28;20038;-59
2022/03/28 01:08:10;;;;;;;4.97;1.10;;;;;;;;;;2076402;28;20105;-59
2022/03/28 01:09:29;;;;;;;2.35;1.08;;;;;;;;;;2075854;28;20542;-60
2022/03/28 01:10:50;;;;;;;1.52;0.63;;;;;;;;;;2077675;28;20042;-59
2022/03/28 01:12:09;;;;;;;1.35;1.00;;;;;;;;;;2075841;28;20029;-59
2022/03/28 01:13:28;;;;;;;0.93;0.75;;;;;;;;;;2076923;28;20399;-59
2022/03/28 01:14:48;;;;;;;0.60;0.60;;;;;;;;;;2077698;28;20073;-60
2022/03/28 01:16:08;;;;;;;2.03;0.90;;;;;;;;;;2076992;28;20507;-60
2022/03/28 01:19:04;;;;;;;0.88;0.65;;;;;;;;;;2076272;28;20480;-60
2022/03/28 01:20:24;;;;;;;1.23;0.98;;;;;;;;;;2076373;28;20033;-60
2022/03/28 01:21:42;;;;;;;4.05;0.90;;;;;;;;;;2075268;28;20415;-60
2022/03/28 01:23:02;;;;;;;0.95;0.80;;;;;;;;;;2077433;28;20033;-60
2022/03/28 01:24:20;;;;;;;2.40;0.85;;;;;;;;;;2076697;28;20026;-60
2022/03/28 01:25:43;;;;;;;2.22;0.85;;;;;;;;;;2076888;28;20033;-60
2022/03/28 01:27:02;;;;;;;0.68;0.68;;;;;;;;;;2074883;28;20033;-60
2022/03/28 01:28:22;;;;;;;2.03;0.80;;;;;;;;;;2077495;28;20025;-58
2022/03/28 01:29:44;;;;;;;2.28;0.98;;;;;;;;;;2074556;28;20041;-58
2022/03/28 01:31:03;;;;;;;1.90;1.45;;;;;;;;;;2076493;28;20038;-60
2022/03/28 01:32:22;;;;;;;2.38;1.05;;;;;;;;;;2075531;28;20037;-59
2022/03/28 01:33:41;;;;;;;11.48;1.80;;;;;;;;;;2076447;28;20096;-59
2022/03/28 01:35:00;;;;;;;1.63;1.00;;;;;;;;;;2075335;28;20515;-60
2022/03/28 01:36:19;;;;;;;1.30;0.98;;;;;;;;;;2075540;28;20037;-58
2022/03/28 01:37:38;;;;;;;1.20;1.10;;;;;;;;;;2077137;28;20034;-60
2022/03/28 01:38:57;;;;;;;7.05;1.00;;;;;;;;;;2073168;28;20496;-60
2022/03/28 01:40:16;;;;;;;4.10;0.90;;;;;;;;;;2071761;28;20030;-60
2022/03/28 01:41:34;;;;;;;1.58;0.63;;;;;;;;;;2077246;28;20026;-60
2022/03/28 01:42:53;;;;;;;2.65;1.08;;;;;;;;;;2075971;28;20017;-60
2022/03/28 01:44:13;;;;;;;0.95;0.95;;;;;;;;;;2074601;28;20022;-59
2022/03/28 01:45:32;;;;;;;0.95;0.70;;;;;;;;;;2074619;28;20503;-60
2022/03/28 01:46:51;;;;;;;1.40;1.30;;;;;;;;;;2074509;28;20496;-58
2022/03/28 01:48:10;;;;;;;2.42;0.98;;;;;;;;;;2074931;28;20116;-60
2022/03/28 01:49:31;;;;;;;3.80;0.95;;;;;;;;;;2075328;28;20057;-59
2022/03/28 01:50:50;;;;;;;1.20;1.10;;;;;;;;;;2076033;28;20033;-60
2022/03/28 01:52:09;;;;;;;2.45;0.90;;;;;;;;;;2073613;28;20500;-59
2022/03/28 01:53:28;;;;;;;0.98;0.95;;;;;;;;;;2075644;28;20026;-60
2022/03/28 01:54:47;;;;;;;1.42;1.10;;;;;;;;;;2076274;28;20045;-60
2022/03/28 01:56:06;;;;;;;1.83;1.10;;;;;;;;;;2076662;28;20026;-60
2022/03/28 01:57:24;;;;;;;1.90;0.98;;;;;;;;;;2077086;28;20021;-60
2022/03/28 01:58:43;;;;;;;1.95;1.17;;;;;;;;;;2077304;28;20033;-60
2022/03/28 02:00:03;;;;;;;2.60;1.30;;;;;;;;;;2074376;28;20491;-60
2022/03/28 02:01:21;;;;;;;3.90;1.30;;;;;;;;;;2075908;28;20457;-57
2022/03/28 02:02:41;;;;;;;6.45;1.45;;;;;;;;;;2072071;28;20064;-60
2022/03/28 02:04:00;;;;;;;3.78;1.05;;;;;;;;;;2076662;28;20026;-60
2022/03/28 02:05:19;;;;;;;4.00;1.30;;;;;;;;;;2076772;28;20108;-60
2022/03/28 02:06:37;;;;;;;2.50;0.95;;;;;;;;;;2077488;28;20026;-60
2022/03/28 02:07:56;;;;;;;2.55;1.23;;;;;;;;;;2075595;28;20104;-59
2022/03/28 02:09:15;;;;;;;5.97;1.30;;;;;;;;;;2075500;28;20021;-60
2022/03/28 02:10:35;;;;;;;1.60;1.20;;;;;;;;;;2074540;28;20030;-59
2022/03/28 02:11:53;;;;;;;1.85;1.17;;;;;;;;;;2075372;28;20023;-59
2022/03/28 02:13:12;;;;;;;1.70;1.60;;;;;;;;;;2077079;28;20025;-60
2022/03/28 02:14:31;;;;;;;2.70;1.02;;;;;;;;;;2075121;28;20113;-59
2022/03/28 02:15:50;;;;;;;2.40;1.30;;;;;;;;;;2077030;28;20037;-60
2022/03/28 02:17:09;;;;;;;4.07;1.45;;;;;;;;;;2076767;28;20399;-60
2022/03/28 02:18:28;;;;;;;3.75;1.00;;;;;;;;;;2076989;28;20034;-60
2022/03/28 02:19:47;;;;;;;1.40;1.30;;;;;;;;;;2075170;28;20061;-59
2022/03/28 02:21:06;;;;;;;2.17;1.08;;;;;;;;;;2076808;28;20038;-59
2022/03/28 02:22:25;;;;;;;1.70;1.20;;;;;;;;;;2075415;28;20029;-59
2022/03/28 02:23:44;;;;;;;1.55;1.08;;;;;;;;;;2076677;28;20034;-59
2022/03/28 02:25:04;;;;;;;1.77;1.30;;;;;;;;;;2075806;28;20041;-60
2022/03/28 02:26:22;;;;;;;4.13;1.20;;;;;;;;;;2076800;28;20396;-59
2022/03/28 02:27:41;;;;;;;1.10;1.10;;;;;;;;;;2075464;28;20030;-60
2022/03/28 02:29:00;;;;;;;1.67;1.17;;;;;;;;;;2077146;28;20141;-59
2022/03/28 02:30:19;;;;;;;2.85;1.48;;;;;;;;;;2073932;28;20504;-58
2022/03/28 02:31:38;;;;;;;1.02;0.93;;;;;;;;;;2076169;28;20079;-59
2022/03/28 02:32:57;;;;;;;5.85;1.38;;;;;;;;;;2076636;28;20500;-60
2022/03/28 02:34:16;;;;;;;7.25;1.60;;;;;;;;;;2077336;28;20037;-59
2022/03/28 02:35:35;;;;;;;1.83;1.23;;;;;;;;;;2074356;28;20491;-60
2022/03/28 02:36:55;;;;;;;1.40;1.17;;;;;;;;;;2077060;28;20563;-60
2022/03/28 02:38:14;;;;;;;3.55;1.30;;;;;;;;;;2075984;28;20022;-59
2022/03/28 02:39:33;;;;;;;1.27;1.17;;;;;;;;;;2073602;28;20033;-58
2022/03/28 02:40:53;;;;;;;1.52;1.38;;;;;;;;;;2075997;28;20033;-59
2022/03/28 02:42:12;;;;;;;2.17;1.38;;;;;;;;;;2075185;28;20029;-60
2022/03/28 02:43:31;;;;;;;2.63;1.45;;;;;;;;;;2076194;28;20029;-61
2022/03/28 02:44:50;;;;;;;1.77;1.17;;;;;;;;;;2075287;28;20434;-59
2022/03/28 02:46:09;;;;;;;2.42;1.50;;;;;;;;;;2076280;28;20491;-59
2022/03/28 02:47:28;;;;;;;2.63;1.15;;;;;;;;;;2072311;28;20069;-57
2022/03/28 02:48:47;;;;;;;1.90;1.70;;;;;;;;;;2077108;28;20029;-60
2022/03/28 02:50:06;;;;;;;1.55;1.20;;;;;;;;;;2076073;28;20507;-59
2022/03/28 02:51:26;;;;;;;1.35;0.88;;;;;;;;;;2076886;28;20021;-59
2022/03/28 02:52:45;;;;;;;6.43;1.40;;;;;;;;;;2075276;28;20022;-58
2022/03/28 02:54:04;;;;;;;2.88;1.25;;;;;;;;;;2076858;28;20126;-60
2022/03/28 02:55:23;;;;;;;1.55;1.45;;;;;;;;;;2076021;28;20057;-59
2022/03/28 02:56:42;;;;;;;1.42;1.30;;;;;;;;;;2076176;28;20046;-59
2022/03/28 02:58:01;;;;;;;1.10;0.93;;;;;;;;;;2075289;28;20038;-60
2022/03/28 02:59:23;;;;;;;1.65;0.60;;;;;;;;;;2073914;28;20034;-59
2022/03/28 03:00:43;;;;;;;3.78;1.50;;;;;;;;;;2075617;28;20037;-59
2022/03/28 03:02:02;;;;;;;2.85;1.33;;;;;;;;;;2074393;28;20026;-60
2022/03/28 03:03:21;;;;;;;2.22;1.40;;;;;;;;;;2076089;28;20033;-60
2022/03/28 03:04:40;;;;;;;1.40;1.25;;;;;;;;;;2073860;28;20026;-60
2022/03/28 03:05:58;;;;;;;3.72;1.40;;;;;;;;;;2074995;28;20034;-60
2022/03/28 03:07:20;;;;;;;1.40;1.30;;;;;;;;;;2075626;28;20026;-60
2022/03/28 03:08:39;;;;;;;2.30;1.70;;;;;;;;;;2075806;28;20496;-59
2022/03/28 03:10:01;;;;;;;6.97;1.92;;;;;;;;;;2074968;28;20034;-60
2022/03/28 03:11:20;;;;;;;1.80;1.30;;;;;;;;;;2075426;28;20045;-59
2022/03/28 03:12:39;;;;;;;2.63;1.55;;;;;;;;;;2075255;28;20034;-58
2022/03/28 03:13:57;;;;;;;3.35;1.70;;;;;;;;;;2077025;28;20391;-59
2022/03/28 03:15:16;;;;;;;3.92;1.75;;;;;;;;;;2077182;28;20034;-60
2022/03/28 03:16:35;;;;;;;2.88;1.80;;;;;;;;;;2077173;28;20514;-59
2022/03/28 03:17:54;;;;;;;3.53;1.38;;;;;;;;;;2076200;28;20030;-59
2022/03/28 03:19:13;;;;;;;2.22;1.45;;;;;;;;;;2073940;28;20108;-59
2022/03/28 03:20:32;;;;;;;3.78;1.98;;;;;;;;;;2076544;28;20041;-59
2022/03/28 03:21:51;;;;;;;2.97;1.95;;;;;;;;;;2074379;28;20037;-59
2022/03/28 03:23:10;;;;;;;2.90;1.58;;;;;;;;;;2076393;28;20019;-59
2022/03/28 03:24:29;;;;;;;1.58;1.48;;;;;;;;;;2075789;28;20399;-58
2022/03/28 03:25:49;;;;;;;1.88;1.60;;;;;;;;;;2075791;28;20033;-59
2022/03/28 03:27:08;;;;;;;2.58;1.80;;;;;;;;;;2075448;28;20026;-59
2022/03/28 03:28:27;;;;;;;2.80;1.55;;;;;;;;;;2076521;28;20026;-59
2022/03/28 03:29:47;;;;;;;1.80;1.70;;;;;;;;;;2075375;28;20448;-59
2022/03/28 03:31:06;;;;;;;1.80;1.40;;;;;;;;;;2075293;28;20033;-59
2022/03/28 03:32:25;;;;;;;3.55;1.83;;;;;;;;;;2074969;28;20106;-59
2022/03/28 03:33:44;;;;;;;5.82;1.80;;;;;;;;;;2077225;28;20076;-59
2022/03/28 03:35:03;;;;;;;3.97;1.52;;;;;;;;;;2074690;28;20022;-59
2022/03/28 03:36:22;;;;;;;3.40;1.95;;;;;;;;;;2074948;28;20022;-59
2022/03/28 03:37:42;;;;;;;2.58;1.67;;;;;;;;;;2076433;28;20041;-59
2022/03/28 03:39:01;;;;;;;2.78;1.80;;;;;;;;;;2072922;28;20026;-59
2022/03/28 03:40:19;;;;;;;3.08;1.77;;;;;;;;;;2076318;28;20026;-59
2022/03/28 03:41:38;;;;;;;4.40;1.73;;;;;;;;;;2074732;28;20030;-59
2022/03/28 03:42:57;;;;;;;5.65;1.85;;;;;;;;;;2076265;28;20033;-59
2022/03/28 03:44:16;;;;;;;2.42;1.90;;;;;;;;;;2074598;28;20018;-59
2022/03/28 03:45:35;;;;;;;3.80;2.17;;;;;;;;;;2075680;28;20393;-60
2022/03/28 03:46:54;;;;;;;4.65;1.83;;;;;;;;;;2074925;28;20109;-59
2022/03/28 03:48:13;;;;;;;11.73;2.55;;;;;;;;;;2075162;28;20034;-60
2022/03/28 03:49:32;;;;;;;4.18;1.58;;;;;;;;;;2074928;28;20033;-59
2022/03/28 03:50:51;;;;;;;3.10;2.30;;;;;;;;;;2076042;28;20069;-59
2022/03/28 03:52:10;;;;;;;5.05;2.05;;;;;;;;;;2075173;28;20077;-58
2022/03/28 03:53:29;;;;;;;3.55;1.77;;;;;;;;;;2076820;28;20034;-60
2022/03/28 03:54:48;;;;;;;8.85;2.40;;;;;;;;;;2077733;28;20045;-60
2022/03/28 03:56:07;;;;;;;2.60;1.83;;;;;;;;;;2075515;28;20069;-59
2022/03/28 03:57:26;;;;;;;3.40;1.73;;;;;;;;;;2076209;28;20026;-58
2022/03/28 03:58:45;;;;;;;6.00;2.30;;;;;;;;;;2075628;28;20029;-59
2022/03/28 04:00:04;;;;;;;4.32;1.92;;;;;;;;;;2077593;28;20022;-59
2022/03/28 04:01:23;;;;;;;2.28;1.70;;;;;;;;;;2075270;28;20480;-60
2022/03/28 04:02:42;;;;;;;1.90;1.42;;;;;;;;;;2076869;28;20029;-60
2022/03/28 04:04:01;;;;;;;2.20;2.00;;;;;;;;;;2077540;28;20021;-57
2022/03/28 04:05:20;;;;;;;2.47;1.67;;;;;;;;;;2078091;28;20022;-58
2022/03/28 04:06:39;;;;;;;4.30;1.80;;;;;;;;;;2076228;28;20046;-57
2022/03/28 04:07:59;;;;;;;6.05;2.75;;;;;;;;;;2076808;28;20384;-58
2022/03/28 04:09:18;;;;;;;2.95;2.13;;;;;;;;;;2075636;28;20488;-58
2022/03/28 04:10:37;;;;;;;5.32;2.20;;;;;;;;;;2078279;28;20480;-60
2022/03/28 04:11:57;;;;;;;2.58;2.38;;;;;;;;;;2075009;28;20030;-59
2022/03/28 04:13:16;;;;;;;2.10;1.90;;;;;;;;;;2078073;28;20052;-59
2022/03/28 04:14:35;;;;;;;3.90;2.17;;;;;;;;;;2077603;28;20022;-59
2022/03/28 04:15:54;;;;;;;7.90;2.20;;;;;;;;;;2076304;28;20026;-59
2022/03/28 04:17:13;;;;;;;3.40;1.95;;;;;;;;;;2075334;28;20388;-59
2022/03/28 04:18:32;;;;;;;2.45;1.92;;;;;;;;;;2077137;28;20034;-59
2022/03/28 04:19:51;;;;;;;3.72;2.03;;;;;;;;;;2074290;28;20030;-59
2022/03/28 04:21:10;;;;;;;2.85;2.10;;;;;;;;;;2077618;28;20121;-59
2022/03/28 04:22:29;;;;;;;6.07;2.58;;;;;;;;;;2074606;28;20026;-59
2022/03/28 04:23:48;;;;;;;4.85;2.30;;;;;;;;;;2077119;28;20108;-59
2022/03/28 04:25:08;;;;;;;6.55;2.47;;;;;;;;;;2075450;28;20030;-58
2022/03/28 04:26:27;;;;;;;3.88;2.05;;;;;;;;;;2076804;28;20033;-58
2022/03/28 04:27:46;;;;;;;2.47;2.28;;;;;;;;;;2075844;28;20046;-60
2022/03/28 04:29:05;;;;;;;2.35;1.70;;;;;;;;;;2077317;28;20073;-59
2022/03/28 04:30:24;;;;;;;2.58;2.22;;;;;;;;;;2073795;28;20104;-59
2022/03/28 04:31:43;;;;;;;7.53;2.58;;;;;;;;;;2077139;28;20636;-59
2022/03/28 04:33:03;;;;;;;4.57;2.60;;;;;;;;;;2077399;28;20038;-58
2022/03/28 04:34:22;;;;;;;5.45;2.50;;;;;;;;;;2077931;28;20029;-59
2022/03/28 04:35:43;;;;;;;3.25;2.58;;;;;;;;;;2075910;28;20018;-59
2022/03/28 04:37:02;;;;;;;4.97;2.67;;;;;;;;;;2075048;28;20053;-59
2022/03/28 04:38:24;;;;;;;4.47;1.95;;;;;;;;;;2076822;28;20026;-60
2022/03/28 04:39:43;;;;;;;3.88;1.40;;;;;;;;;;2076188;28;20022;-60
2022/03/28 04:41:02;;;;;;;7.20;2.90;;;;;;;;;;2076579;28;20113;-60
2022/03/28 04:42:21;;;;;;;3.80;2.80;;;;;;;;;;2075842;28;20034;-59
2022/03/28 04:43:40;;;;;;;3.30;2.40;;;;;;;;;;2076402;28;20495;-59
2022/03/28 04:44:59;;;;;;;4.03;2.35;;;;;;;;;;2076710;28;20049;-58
2022/03/28 04:46:18;;;;;;;3.63;2.33;;;;;;;;;;2077451;28;20400;-59
2022/03/28 04:47:38;;;;;;;5.75;2.92;;;;;;;;;;2073059;28;20479;-58
2022/03/28 04:48:57;;;;;;;7.38;2.15;;;;;;;;;;2078205;28;20038;-58
2022/03/28 04:50:16;;;;;;;20.65;3.35;;;;;;;;;;2075320;28;20053;-61
2022/03/28 04:51:36;;;;;;;6.15;2.45;;;;;;;;;;2077401;28;20034;-60
2022/03/28 04:52:55;;;;;;;3.35;2.30;;;;;;;;;;2076614;28;20022;-58
2022/03/28 04:54:14;;;;;;;2.97;2.58;;;;;;;;;;2077274;28;20026;-62
2022/03/28 04:55:32;;;;;;;7.50;2.28;;;;;;;;;;2077112;28;20030;-59
2022/03/28 04:56:51;;;;;;;10.73;2.92;;;;;;;;;;2076313;28;20515;-58
2022/03/28 04:58:10;;;;;;;3.85;2.65;;;;;;;;;;2076604;28;20031;-59
2022/03/28 04:59:29;;;;;;;5.50;3.00;;;;;;;;;;2075552;28;20030;-58
2022/03/28 05:00:49;;;;;;;9.70;2.35;;;;;;;;;;2074510;28;20073;-59
2022/03/28 05:02:08;;;;;;;8.68;2.63;;;;;;;;;;2076001;28;20034;-59
2022/03/28 05:03:27;;;;;;;3.28;2.55;;;;;;;;;;2077930;28;20114;-59
2022/03/28 05:04:47;;;;;;;5.90;2.28;;;;;;;;;;2077137;28;20026;-61
2022/03/28 05:06:05;;;;;;;7.68;3.28;;;;;;;;;;2076044;28;20033;-59
2022/03/28 05:07:25;;;;;;;18.13;3.72;;;;;;;;;;2074461;28;20026;-57
2022/03/28 05:08:44;;;;;;;10.57;3.67;;;;;;;;;;2076909;28;20034;-59
2022/03/28 05:10:05;;;;;;;3.85;2.80;;;;;;;;;;2072962;28;20029;-57
2022/03/28 05:11:24;;;;;;;3.15;1.92;;;;;;;;;;2075937;28;20038;-59
2022/03/28 05:12:43;;;;;;;7.50;3.20;;;;;;;;;;2072781;28;20400;-58
2022/03/28 05:14:03;;;;;;;12.57;3.45;;;;;;;;;;2076837;28;20058;-59
2022/03/28 05:15:22;;;;;;;6.38;2.80;;;;;;;;;;2076610;28;20470;-59
2022/03/28 05:16:41;;;;;;;6.75;3.50;;;;;;;;;;2075711;28;20018;-59
2022/03/28 05:18:01;;;;;;;7.55;3.42;;;;;;;;;;2075489;28;20030;-59
2022/03/28 05:19:20;;;;;;;5.18;2.58;;;;;;;;;;2068641;28;20041;-57
2022/03/28 05:20:39;;;;;;;6.65;3.13;;;;;;;;;;2072517;28;20042;-58
2022/03/28 05:21:58;;;;;;;7.13;3.97;;;;;;;;;;2074159;28;20034;-58
2022/03/28 05:23:17;;;;;;;5.50;3.03;;;;;;;;;;2072828;28;20088;-58
2022/03/28 05:24:36;;;;;;;8.02;2.50;;;;;;;;;;2076426;28;20026;-59
2022/03/28 05:25:55;;;;;;;5.53;3.20;;;;;;;;;;2075036;28;20037;-59
2022/03/28 05:27:15;;;;;;;7.53;2.83;;;;;;;;;;2072917;28;20030;-58
2022/03/28 05:28:33;;;;;;;7.60;2.88;;;;;;;;;;2069888;28;20037;-57
2022/03/28 05:29:52;;;;;;;16.23;3.30;;;;;;;;;;2076661;28;20033;-59
2022/03/28 05:31:11;;;;;;;9.63;3.25;;;;;;;;;;2074798;28;20038;-59
2022/03/28 05:32:30;;;;;;;10.77;3.13;;;;;;;;;;2075320;28;20026;-59
2022/03/28 05:33:49;;;;;;;8.43;2.65;;;;;;;;;;2072477;28;20038;-59
2022/03/28 05:35:09;;;;;;;7.20;2.95;;;;;;;;;;2070131;28;20068;-58
2022/03/28 05:36:28;;;;;;;11.25;2.92;;;;;;;;;;2074291;28;20374;-59
2022/03/28 05:37:47;;;;;;;4.72;2.33;;;;;;;;;;2076537;28;20033;-59
2022/03/28 05:39:06;;;;;;;8.90;3.05;;;;;;;;;;2076974;28;20029;-59
2022/03/28 05:40:24;;;;;;;44.33;4.88;;;;;;;;;;2071293;28;20489;-59
2022/03/28 05:41:43;;;;;;;2.03;1.83;;;;;;;;;;2077315;28;20053;-58
2022/03/28 05:43:03;;;;;;;5.57;3.45;;;;;;;;;;2075868;28;20026;-56
2022/03/28 05:44:22;;;;;;;10.40;2.80;;;;;;;;;;2075207;28;20029;-61
2022/03/28 05:45:41;;;;;;;10.40;3.33;;;;;;;;;;2076863;28;20125;-59
2022/03/28 05:47:00;;;;;;;8.48;3.60;;;;;;;;;;2072038;28;20439;-58
2022/03/28 05:48:19;;;;;;;6.00;2.90;;;;;;;;;;2073985;28;20041;-58
2022/03/28 05:49:38;;;;;;;7.70;2.65;;;;;;;;;;2075246;28;20042;-56
2022/03/28 05:50:57;;;;;;;6.72;3.20;;;;;;;;;;2072906;28;20462;-59
2022/03/28 05:52:16;;;;;;;6.15;2.60;;;;;;;;;;2071877;28;20481;-59
2022/03/28 05:53:35;;;;;;;8.77;3.45;;;;;;;;;;2075440;28;20038;-59
2022/03/28 05:54:54;;;;;;;6.50;3.28;;;;;;;;;;2077025;28;20029;-58
2022/03/28 05:56:13;;;;;;;4.93;2.50;;;;;;;;;;2076619;28;20029;-58
2022/03/28 05:57:33;;;;;;;13.90;2.92;;;;;;;;;;2075806;28;20033;-57
2022/03/28 05:58:51;;;;;;;5.85;2.22;;;;;;;;;;2074933;28;20485;-58
2022/03/28 06:00:13;;;;;;;6.57;2.30;;;;;;;;;;2074500;28;20450;-60
2022/03/28 06:01:32;;;;;;;9.05;3.08;;;;;;;;;;2076716;28;20026;-60
2022/03/28 06:02:51;;;;;;;8.70;2.83;;;;;;;;;;2076810;28;20025;-60
2022/03/28 06:04:10;;;;;;;13.82;3.42;;;;;;;;;;2075110;28;20026;-59
2022/03/28 06:05:29;;;;;;;10.30;3.63;;;;;;;;;;2075698;28;20456;-58
2022/03/28 06:06:48;;;;;;;11.52;3.00;;;;;;;;;;2075763;28;20384;-58
2022/03/28 06:08:07;;;;;;;7.72;3.13;;;;;;;;;;2075630;28;20017;-58
2022/03/28 06:09:27;;;;;;;6.63;3.10;;;;;;;;;;2077007;28;20388;-59
2022/03/28 06:10:46;;;;;;;5.57;3.30;;;;;;;;;;2072945;28;20025;-57
2022/03/28 06:12:05;;;;;;;7.40;2.63;;;;;;;;;;2071688;28;20018;-59
2022/03/28 06:13:24;;;;;;;8.45;2.88;;;;;;;;;;2073979;28;20496;-60
2022/03/28 06:14:43;;;;;;;13.68;3.60;;;;;;;;;;2074249;28;20045;-57
2022/03/28 06:16:02;;;;;;;7.55;3.00;;;;;;;;;;2075606;28;20030;-59
2022/03/28 06:17:25;;;;;;;6.80;3.13;;;;;;;;;;2076844;28;20030;-59
2022/03/28 06:18:44;;;;;;;6.10;2.97;;;;;;;;;;2074524;28;20474;-58
2022/03/28 06:20:03;;;;;;;10.70;3.08;;;;;;;;;;2076066;28;20029;-59
2022/03/28 06:21:22;;;;;;;11.02;3.25;;;;;;;;;;2075165;28;20029;-57
2022/03/28 06:22:41;;;;;;;6.35;2.90;;;;;;;;;;2076486;28;20551;-59
2022/03/28 06:24:00;;;;;;;11.52;3.50;;;;;;;;;;2076235;28;20129;-60
2022/03/28 06:25:19;;;;;;;5.63;3.60;;;;;;;;;;2076218;28;20391;-57
2022/03/28 06:26:38;;;;;;;4.40;3.08;;;;;;;;;;2076837;28;20096;-59
2022/03/28 06:27:57;;;;;;;5.80;3.65;;;;;;;;;;2075880;28;20065;-59
2022/03/28 06:29:16;;;;;;;8.77;2.90;;;;;;;;;;2075756;28;20037;-59
2022/03/28 06:30:35;;;;;;;6.68;3.08;;;;;;;;;;2076500;28;20046;-59
2022/03/28 06:31:54;;;;;;;11.40;3.63;;;;;;;;;;2072493;28;20027;-59
2022/03/28 06:33:13;;;;;;;8.70;3.40;;;;;;;;;;2074983;28;20468;-59
2022/03/28 06:34:32;;;;;;;6.68;3.22;;;;;;;;;;2075355;28;20038;-59
2022/03/28 06:35:52;;;;;;;10.13;3.90;;;;;;;;;;2075717;28;20877;-59
2022/03/28 06:37:11;;;;;;;15.07;4.00;;;;;;;;;;2075506;28;20029;-59
2022/03/28 06:38:30;;;;;;;8.60;3.53;;;;;;;;;;2077077;28;20034;-59
2022/03/28 06:39:49;;;;;;;11.02;3.47;;;;;;;;;;2076184;28;20038;-59
2022/03/28 06:41:09;;;;;;;11.63;3.55;;;;;;;;;;2076294;28;20022;-59
2022/03/28 06:42:28;;;;;;;7.55;2.97;;;;;;;;;;2075435;28;20034;-59
2022/03/28 06:43:47;;;;;;;15.45;3.83;;;;;;;;;;2076502;28;20037;-58
2022/03/28 06:45:09;;;;;;;12.43;3.05;;;;;;;;;;2076549;28;20511;-59
2022/03/28 06:46:28;;;;;;;11.15;3.40;;;;;;;;;;2077096;28;20033;-59
2022/03/28 06:47:51;;;;;;;13.23;4.05;;;;;;;;;;2076950;28;20057;-59
2022/03/28 06:49:10;;;;;;;5.93;3.65;;;;;;;;;;2075435;28;20018;-59
2022/03/28 06:50:29;;;;;;;7.00;3.47;;;;;;;;;;2076590;28;20034;-60
2022/03/28 06:51:47;;;;;;;12.90;3.75;;;;;;;;;;2076095;28;20692;-57
2022/03/28 06:53:06;;;;;;;4.07;2.40;;;;;;;;;;2076597;28;20501;-58
2022/03/28 06:54:26;;;;;;;5.05;2.90;;;;;;;;;;2075988;28;20030;-58
2022/03/28 06:55:44;;;;;;;11.70;3.45;;;;;;;;;;2075815;28;20022;-59
2022/03/28 06:57:03;;;;;;;6.03;3.78;;;;;;;;;;2076401;28;20033;-59
2022/03/28 06:58:23;;;;;;;8.60;3.63;;;;;;;;;;2077114;28;20030;-60
2022/03/28 06:59:42;;;;;;;7.97;3.80;;;;;;;;;;2075599;28;20030;-59
2022/03/28 07:01:01;;;;;;;5.75;3.72;;;;;;;;;;2077048;28;20022;-58
2022/03/28 07:02:20;;;;;;;17.23;4.10;;;;;;;;;;2075467;28;20030;-58
2022/03/28 07:03:38;;;;;;;14.27;4.72;;;;;;;;;;2075003;28;20033;-58
2022/03/28 07:04:57;;;;;;;11.05;3.90;;;;;;;;;;2073236;28;20030;-59
2022/03/28 07:06:17;;;;;;;13.55;3.70;;;;;;;;;;2075650;28;20034;-59
2022/03/28 07:07:43;;;;;;;13.65;3.88;;;;;;;;;;2075996;28;20049;-59
2022/03/28 07:09:04;;;;;;;4.70;3.83;;;;;;;;;;2076954;28;20113;-59
2022/03/28 07:10:23;;;;;;;18.05;4.50;;;;;;;;;;2076255;28;20069;-59
2022/03/28 07:11:41;;;;;;;17.40;4.78;;;;;;;;;;2076184;28;20388;-59
2022/03/28 07:13:00;;;;;;;6.50;3.20;;;;;;;;;;2075594;28;20033;-59
2022/03/28 07:14:19;;;;;;;4.15;2.42;;;;;;;;;;2076161;28;20034;-59
2022/03/28 07:15:38;;;;;;;11.70;4.03;;;;;;;;;;2076244;28;20034;-59
2022/03/28 07:16:57;;;;;;;12.40;3.97;;;;;;;;;;2076713;28;20037;-59
2022/03/28 07:18:16;;;;;;;9.25;3.25;;;;;;;;;;2076267;28;20029;-58
2022/03/28 07:19:36;;;;;;;7.97;2.65;;;;;;;;;;2075577;28;20026;-59
2022/03/28 07:20:54;;;;;;;8.18;3.22;;;;;;;;;;2076464;28;20030;-59
2022/03/28 07:22:13;;;;;;;11.02;4.05;;;;;;;;;;2075916;28;20022;-58
2022/03/28 07:23:33;;;;;;;5.15;3.10;;;;;;;;;;2076622;28;20128;-58
2022/03/28 07:24:52;;;;;;;8.98;3.78;;;;;;;;;;2074668;28;20029;-57
2022/03/28 07:26:11;;;;;;;5.07;3.50;;;;;;;;;;2073059;28;20029;-58
2022/03/28 07:27:35;;;;;;;5.28;3.38;;;;;;;;;;2076233;28;20038;-59
2022/03/28 07:28:58;;;;;;;9.55;4.28;;;;;;;;;;2074884;28;20053;-58
2022/03/28 07:30:17;;;;;;;7.85;4.13;;;;;;;;;;2076393;28;20042;-57
2022/03/28 07:31:39;;;;;;;11.23;5.18;;;;;;;;;;2077385;28;20053;-58
2022/03/28 07:32:59;;;;;;;7.28;4.20;;;;;;;;;;2077507;28;20030;-56
2022/03/28 07:34:30;;;;;;;7.35;4.40;;;;;;;;;;2077690;28;20034;-61
2022/03/28 07:35:50;;;;;;;7.03;4.93;;;;;;;;;;2078137;28;20034;-60
2022/03/28 07:37:10;;;;;;;3.42;2.70;;;;;;;;;;2077840;28;20026;-59
2022/03/28 07:38:29;;;;;;;10.15;3.60;;;;;;;;;;2077235;28;20380;-60
2022/03/28 07:39:48;;;;;;;9.40;4.35;;;;;;;;;;2075865;28;20484;-59
2022/03/28 07:41:06;;;;;;;12.82;5.30;;;;;;;;;;2078017;28;20041;-59
2022/03/28 07:42:26;;;;;;;5.43;4.22;;;;;;;;;;2077335;28;20034;-59
2022/03/28 07:43:44;;;;;;;7.30;4.70;;;;;;;;;;2078255;28;20029;-59
2022/03/28 07:45:05;;;;;;;9.32;3.22;;;;;;;;;;2076641;28;20038;-59
2022/03/28 07:46:23;;;;;;;9.85;4.63;;;;;;;;;;2077406;28;20026;-59
2022/03/28 07:47:43;;;;;;;8.40;4.57;;;;;;;;;;2077354;28;20194;-59
2022/03/28 07:49:02;;;;;;;7.63;4.60;;;;;;;;;;2078015;28;20431;-59
2022/03/28 07:50:21;;;;;;;3.35;3.05;;;;;;;;;;2076898;28;20034;-58
2022/03/28 07:51:40;;;;;;;11.30;3.70;;;;;;;;;;2078586;28;20030;-59
2022/03/28 07:52:58;;;;;;;11.52;4.75;;;;;;;;;;2077716;28;20026;-59
2022/03/28 07:54:18;;;;;;;10.05;3.92;;;;;;;;;;2076835;28;20029;-59
2022/03/28 07:55:39;;;;;;;8.13;4.30;;;;;;;;;;2077008;28;20034;-59